createdAt,value
2019-02-25T00:00:46.352Z,21.77
2019-02-25T00:01:48.741Z,21.80
2019-02-25T00:02:51.075Z,21.75
2019-02-25T00:03:53.363Z,21.75
2019-02-25T00:04:55.481Z,21.72
2019-02-25T00:05:57.528Z,21.71
2019-02-25T00:06:59.657Z,21.71
2019-02-25T00:08:01.968Z,21.68
2019-02-25T00:09:04.960Z,21.64
2019-02-25T00:10:09.109Z,21.61
2019-02-25T00:11:11.360Z,21.61
2019-02-25T00:12:14.138Z,21.62
2019-02-25T00:13:17.416Z,21.62
2019-02-25T00:14:21.021Z,21.63
2019-02-25T00:15:23.002Z,21.62
2019-02-25T00:16:25.034Z,21.63
2019-02-25T00:17:27.112Z,21.64
2019-02-25T00:18:29.267Z,21.63
2019-02-25T00:19:31.239Z,21.64
2019-02-25T00:20:33.334Z,21.68
2019-02-25T00:21:35.392Z,21.70
2019-02-25T00:22:37.494Z,21.65
2019-02-25T00:23:39.782Z,21.62
2019-02-25T00:24:41.940Z,21.63
2019-02-25T00:25:44.056Z,21.53
2019-02-25T00:26:47.724Z,21.53
2019-02-25T00:27:49.526Z,21.53
2019-02-25T00:28:51.680Z,21.45
2019-02-25T00:29:54.882Z,21.40
2019-02-25T00:30:56.918Z,21.34
2019-02-25T00:31:59.016Z,21.29
2019-02-25T00:33:01.105Z,21.27
2019-02-25T00:34:03.248Z,21.28
2019-02-25T00:35:05.677Z,21.30
2019-02-25T00:36:07.788Z,21.30
2019-02-25T00:37:09.998Z,21.27
2019-02-25T00:38:12.131Z,21.27
2019-02-25T00:39:14.273Z,21.27
2019-02-25T00:40:16.017Z,21.29
2019-02-25T00:41:18.055Z,21.31
2019-02-25T00:42:19.929Z,21.33
2019-02-25T00:43:22.205Z,21.34
2019-02-25T00:44:24.257Z,21.33
2019-02-25T00:45:26.167Z,21.33
2019-02-25T00:46:28.241Z,21.34
2019-02-25T00:47:30.277Z,21.36
2019-02-25T00:48:32.449Z,21.40
2019-02-25T00:49:34.673Z,21.42
2019-02-25T00:50:36.743Z,21.42
2019-02-25T00:51:39.032Z,21.43
2019-02-25T00:52:41.128Z,21.45
2019-02-25T00:53:43.357Z,21.46
2019-02-25T00:54:45.451Z,21.50
2019-02-25T00:55:47.442Z,21.47
2019-02-25T00:56:49.456Z,21.55
2019-02-25T00:57:51.705Z,21.51
2019-02-25T00:58:55.473Z,21.48
2019-02-25T00:59:57.335Z,21.46
2019-02-25T01:00:59.325Z,21.48
2019-02-25T01:02:02.929Z,21.48
2019-02-25T01:03:05.635Z,21.48
2019-02-25T01:04:07.843Z,21.49
2019-02-25T01:05:09.960Z,21.51
2019-02-25T01:06:12.036Z,21.53
2019-02-25T01:07:15.190Z,21.55
2019-02-25T01:08:17.445Z,21.58
2019-02-25T01:09:19.461Z,21.58
2019-02-25T01:10:21.910Z,21.57
2019-02-25T01:11:23.734Z,21.60
2019-02-25T01:12:25.936Z,21.60
2019-02-25T01:13:28.042Z,21.60
2019-02-25T01:14:30.069Z,21.58
2019-02-25T01:15:32.166Z,21.59
2019-02-25T01:16:34.168Z,21.60
2019-02-25T01:17:36.144Z,21.60
2019-02-25T01:18:38.360Z,21.62
2019-02-25T01:19:40.436Z,21.62
2019-02-25T01:20:42.522Z,21.62
2019-02-25T01:21:44.719Z,21.64
2019-02-25T01:22:46.969Z,21.67
2019-02-25T01:23:49.084Z,21.64
2019-02-25T01:24:51.981Z,21.68
2019-02-25T01:25:54.971Z,21.71
2019-02-25T01:26:56.836Z,21.70
2019-02-25T01:27:59.183Z,21.70
2019-02-25T01:29:01.209Z,21.67
2019-02-25T01:30:11.753Z,21.69
2019-02-25T01:31:13.411Z,21.70
2019-02-25T01:32:15.694Z,21.72
2019-02-25T01:33:17.704Z,21.73
2019-02-25T01:34:19.857Z,21.75
2019-02-25T01:35:21.923Z,21.78
2019-02-25T01:36:23.833Z,21.79
2019-02-25T01:37:25.623Z,21.79
2019-02-25T01:38:27.912Z,21.80
2019-02-25T01:39:29.556Z,21.79
2019-02-25T01:40:31.607Z,21.80
2019-02-25T01:41:33.701Z,21.81
2019-02-25T01:42:35.670Z,21.80
2019-02-25T01:43:39.867Z,21.80
2019-02-25T01:44:41.911Z,21.82
2019-02-25T01:45:43.819Z,21.84
2019-02-25T01:46:45.781Z,21.84
2019-02-25T01:47:48.015Z,21.83
2019-02-25T01:48:49.665Z,21.86
2019-02-25T01:49:51.754Z,21.84
2019-02-25T01:50:53.999Z,21.87
2019-02-25T01:51:55.830Z,21.86
2019-02-25T01:52:57.752Z,21.86
2019-02-25T01:53:59.734Z,21.87
2019-02-25T01:55:01.540Z,21.85
2019-02-25T01:56:04.780Z,21.86
2019-02-25T01:57:06.957Z,21.87
2019-02-25T01:58:09.163Z,21.88
2019-02-25T01:59:11.704Z,21.91
2019-02-25T02:00:17.891Z,21.90
2019-02-25T02:01:19.985Z,21.91
2019-02-25T02:02:22.149Z,21.94
2019-02-25T02:03:23.997Z,21.93
2019-02-25T02:04:25.840Z,21.95
2019-02-25T02:05:27.982Z,21.96
2019-02-25T02:06:29.967Z,21.96
2019-02-25T02:07:31.931Z,21.98
2019-02-25T02:08:34.118Z,21.99
2019-02-25T02:09:35.974Z,22.00
2019-02-25T02:10:38.283Z,21.99
2019-02-25T02:11:40.377Z,22.01
2019-02-25T02:12:42.765Z,22.02
2019-02-25T02:13:44.709Z,22.01
2019-02-25T02:14:46.928Z,22.04
2019-02-25T02:15:49.116Z,22.06
2019-02-25T02:16:53.172Z,22.05
2019-02-25T02:17:55.359Z,22.05
2019-02-25T02:18:57.522Z,22.05
2019-02-25T02:19:59.384Z,22.06
2019-02-25T02:21:01.436Z,22.07
2019-02-25T02:22:03.363Z,22.07
2019-02-25T02:23:05.272Z,22.06
2019-02-25T02:24:07.589Z,22.07
2019-02-25T02:25:11.243Z,22.08
2019-02-25T02:26:13.163Z,22.07
2019-02-25T02:27:14.891Z,22.08
2019-02-25T02:28:17.223Z,22.06
2019-02-25T02:29:19.252Z,22.08
2019-02-25T02:30:21.878Z,22.07
2019-02-25T02:31:23.657Z,22.08
2019-02-25T02:32:25.862Z,22.05
2019-02-25T02:33:27.789Z,22.08
2019-02-25T02:34:29.633Z,22.06
2019-02-25T02:35:31.588Z,22.08
2019-02-25T02:36:33.341Z,22.04
2019-02-25T02:37:35.262Z,22.02
2019-02-25T02:38:37.143Z,21.98
2019-02-25T02:39:39.006Z,21.94
2019-02-25T02:40:41.411Z,21.95
2019-02-25T02:42:13.381Z,21.88
2019-02-25T02:43:16.336Z,21.84
2019-02-25T02:44:18.245Z,21.82
2019-02-25T02:45:37.570Z,21.80
2019-02-25T02:46:45.268Z,21.76
2019-02-25T02:47:55.397Z,21.76
2019-02-25T02:49:01.404Z,21.74
2019-02-25T02:50:11.586Z,21.68
2019-02-25T02:51:13.496Z,21.66
2019-02-25T02:52:17.404Z,21.60
2019-02-25T02:53:19.487Z,21.61
2019-02-25T02:54:21.452Z,21.57
2019-02-25T02:55:23.525Z,21.50
2019-02-25T02:56:25.600Z,21.46
2019-02-25T02:57:27.520Z,21.44
2019-02-25T02:58:29.534Z,21.44
2019-02-25T02:59:32.747Z,21.39
2019-02-25T03:00:34.982Z,21.37
2019-02-25T03:01:37.039Z,21.36
2019-02-25T03:02:38.893Z,21.36
2019-02-25T03:03:40.798Z,21.37
2019-02-25T03:04:42.958Z,21.38
2019-02-25T03:05:44.855Z,21.39
2019-02-25T03:06:47.186Z,21.40
2019-02-25T03:07:49.357Z,21.44
2019-02-25T03:08:54.457Z,21.41
2019-02-25T03:09:58.803Z,21.42
2019-02-25T03:11:00.508Z,21.42
2019-02-25T03:12:04.522Z,21.43
2019-02-25T03:13:06.463Z,21.42
2019-02-25T03:14:08.303Z,21.44
2019-02-25T03:15:17.020Z,21.53
2019-02-25T03:16:18.805Z,21.42
2019-02-25T03:17:20.688Z,21.38
2019-02-25T03:18:22.786Z,21.33
2019-02-25T03:19:25.689Z,21.32
2019-02-25T03:20:27.785Z,21.39
2019-02-25T03:21:29.766Z,21.19
2019-02-25T03:22:31.618Z,21.19
2019-02-25T03:23:33.635Z,21.09
2019-02-25T03:24:35.602Z,21.07
2019-02-25T03:25:37.635Z,21.05
2019-02-25T03:26:39.659Z,21.04
2019-02-25T03:27:41.335Z,21.07
2019-02-25T03:28:43.615Z,21.04
2019-02-25T03:29:45.625Z,21.03
2019-02-25T03:30:47.405Z,21.11
2019-02-25T03:31:49.362Z,21.04
2019-02-25T03:32:51.367Z,21.00
2019-02-25T03:33:54.548Z,20.94
2019-02-25T03:34:56.574Z,20.94
2019-02-25T03:35:58.718Z,20.96
2019-02-25T03:37:00.566Z,20.99
2019-02-25T03:38:02.796Z,21.04
2019-02-25T03:39:06.268Z,21.06
2019-02-25T03:40:17.838Z,21.10
2019-02-25T03:41:20.273Z,21.17
2019-02-25T03:42:22.616Z,21.22
2019-02-25T03:43:24.478Z,21.27
2019-02-25T03:44:26.247Z,21.32
2019-02-25T03:45:28.661Z,21.36
2019-02-25T03:46:30.418Z,21.41
2019-02-25T03:47:32.463Z,21.41
2019-02-25T03:48:34.614Z,21.43
2019-02-25T03:49:36.599Z,21.45
2019-02-25T03:50:38.721Z,21.50
2019-02-25T03:51:40.842Z,21.54
2019-02-25T03:52:42.543Z,21.55
2019-02-25T03:53:44.582Z,21.57
2019-02-25T03:54:46.798Z,21.58
2019-02-25T03:55:48.722Z,21.57
2019-02-25T03:56:50.895Z,21.58
2019-02-25T03:57:53.250Z,21.56
2019-02-25T03:58:55.202Z,21.55
2019-02-25T03:59:57.420Z,21.53
2019-02-25T04:00:59.603Z,21.53
2019-02-25T04:02:01.832Z,21.58
2019-02-25T04:03:04.085Z,21.50
2019-02-25T04:04:06.175Z,21.46
2019-02-25T04:05:09.324Z,21.45
2019-02-25T04:06:11.535Z,21.44
2019-02-25T04:07:13.495Z,21.47
2019-02-25T04:08:15.471Z,21.47
2019-02-25T04:09:17.630Z,21.46
2019-02-25T04:10:20.155Z,21.48
2019-02-25T04:11:21.949Z,21.49
2019-02-25T04:12:26.322Z,21.49
2019-02-25T04:13:28.498Z,21.48
2019-02-25T04:14:30.593Z,21.48
2019-02-25T04:15:34.339Z,21.45
2019-02-25T04:16:37.526Z,21.44
2019-02-25T04:17:39.499Z,21.42
2019-02-25T04:18:41.303Z,21.40
2019-02-25T04:19:45.406Z,21.43
2019-02-25T04:20:47.322Z,21.42
2019-02-25T04:21:49.129Z,21.43
2019-02-25T04:22:51.088Z,21.42
2019-02-25T04:23:53.415Z,21.42
2019-02-25T04:24:55.508Z,21.44
2019-02-25T04:25:57.417Z,21.41
2019-02-25T04:26:59.515Z,21.41
2019-02-25T04:28:01.512Z,21.43
2019-02-25T04:29:03.698Z,21.44
2019-02-25T04:30:16.424Z,21.45
2019-02-25T04:31:18.276Z,21.44
2019-02-25T04:32:21.755Z,21.45
2019-02-25T04:33:23.652Z,21.45
2019-02-25T04:34:25.552Z,21.45
2019-02-25T04:35:27.465Z,21.45
2019-02-25T04:36:29.481Z,21.45
2019-02-25T04:37:31.522Z,21.48
2019-02-25T04:38:36.492Z,21.48
2019-02-25T04:39:38.263Z,21.51
2019-02-25T04:40:41.934Z,21.52
2019-02-25T04:41:43.767Z,21.52
2019-02-25T04:42:46.331Z,21.54
2019-02-25T04:43:48.365Z,21.53
2019-02-25T04:44:51.500Z,21.53
2019-02-25T04:45:53.816Z,21.52
2019-02-25T04:46:55.794Z,21.53
2019-02-25T04:47:58.120Z,21.55
2019-02-25T04:49:00.249Z,21.59
2019-02-25T04:50:03.185Z,21.61
2019-02-25T04:51:05.407Z,21.59
2019-02-25T04:52:07.293Z,21.59
2019-02-25T04:53:09.580Z,21.59
2019-02-25T04:54:11.313Z,21.56
2019-02-25T04:55:14.387Z,21.55
2019-02-25T04:56:17.523Z,21.57
2019-02-25T04:57:21.327Z,21.58
2019-02-25T04:58:23.225Z,21.61
2019-02-25T04:59:25.354Z,21.62
2019-02-25T05:00:27.872Z,21.61
2019-02-25T05:01:30.025Z,21.62
2019-02-25T05:02:32.185Z,21.66
2019-02-25T05:03:34.601Z,21.68
2019-02-25T05:04:36.603Z,21.70
2019-02-25T05:05:38.355Z,21.71
2019-02-25T05:06:40.427Z,21.73
2019-02-25T05:07:42.832Z,21.73
2019-02-25T05:08:44.692Z,21.73
2019-02-25T05:09:46.568Z,21.74
2019-02-25T05:10:48.539Z,21.75
2019-02-25T05:11:50.689Z,21.73
2019-02-25T05:13:03.134Z,21.76
2019-02-25T05:14:04.904Z,21.78
2019-02-25T05:15:08.375Z,21.76
2019-02-25T05:16:11.090Z,21.78
2019-02-25T05:17:13.261Z,21.80
2019-02-25T05:18:15.127Z,21.79
2019-02-25T05:19:17.109Z,21.80
2019-02-25T05:20:19.370Z,21.79
2019-02-25T05:21:21.242Z,21.80
2019-02-25T05:22:23.143Z,21.80
2019-02-25T05:23:25.111Z,21.81
2019-02-25T05:24:27.103Z,21.84
2019-02-25T05:25:29.075Z,21.83
2019-02-25T05:26:31.077Z,21.83
2019-02-25T05:27:32.798Z,21.84
2019-02-25T05:28:35.270Z,21.85
2019-02-25T05:29:37.100Z,21.86
2019-02-25T05:30:40.303Z,21.85
2019-02-25T05:31:42.287Z,21.87
2019-02-25T05:32:46.098Z,21.85
2019-02-25T05:33:47.970Z,21.84
2019-02-25T05:34:49.965Z,21.84
2019-02-25T05:35:52.071Z,21.85
2019-02-25T05:36:53.963Z,21.84
2019-02-25T05:37:55.820Z,21.83
2019-02-25T05:38:58.900Z,21.84
2019-02-25T05:40:01.181Z,21.85
2019-02-25T05:41:03.335Z,21.84
2019-02-25T05:42:05.239Z,21.86
2019-02-25T05:43:07.087Z,21.86
2019-02-25T05:44:09.326Z,21.87
2019-02-25T05:45:13.179Z,21.88
2019-02-25T05:46:15.248Z,21.87
2019-02-25T05:47:17.586Z,21.89
2019-02-25T05:48:19.529Z,21.88
2019-02-25T05:49:21.789Z,21.87
2019-02-25T05:50:23.907Z,21.87
2019-02-25T05:51:25.611Z,21.85
2019-02-25T05:52:27.693Z,21.87
2019-02-25T05:53:29.569Z,21.87
2019-02-25T05:54:31.823Z,21.84
2019-02-25T05:55:34.091Z,21.82
2019-02-25T05:56:36.457Z,21.87
2019-02-25T05:57:38.455Z,21.82
2019-02-25T05:58:40.449Z,21.84
2019-02-25T05:59:42.750Z,21.85
2019-02-25T06:00:44.705Z,21.86
2019-02-25T06:01:46.506Z,21.86
2019-02-25T06:02:48.947Z,21.86
2019-02-25T06:03:50.870Z,21.88
2019-02-25T06:04:52.715Z,21.90
2019-02-25T06:05:54.670Z,21.91
2019-02-25T06:06:57.881Z,21.92
2019-02-25T06:08:00.564Z,21.94
2019-02-25T06:09:03.693Z,21.94
2019-02-25T06:10:08.797Z,21.94
2019-02-25T06:11:11.023Z,21.95
2019-02-25T06:12:13.134Z,21.96
2019-02-25T06:13:15.021Z,21.95
2019-02-25T06:14:17.179Z,21.95
2019-02-25T06:15:19.524Z,21.98
2019-02-25T06:16:21.363Z,21.96
2019-02-25T06:17:23.378Z,21.98
2019-02-25T06:18:25.530Z,21.99
2019-02-25T06:19:27.282Z,22.00
2019-02-25T06:20:29.284Z,22.01
2019-02-25T06:21:31.531Z,22.00
2019-02-25T06:22:33.586Z,22.01
2019-02-25T06:23:35.706Z,22.03
2019-02-25T06:24:37.526Z,22.04
2019-02-25T06:25:41.344Z,22.03
2019-02-25T06:26:43.447Z,22.02
2019-02-25T06:27:45.320Z,22.07
2019-02-25T06:28:47.490Z,22.06
2019-02-25T06:29:49.558Z,22.07
2019-02-25T06:30:51.437Z,22.10
2019-02-25T06:31:53.506Z,22.06
2019-02-25T06:32:55.434Z,22.09
2019-02-25T06:33:57.367Z,22.10
2019-02-25T06:34:59.382Z,21.96
2019-02-25T06:36:01.525Z,21.88
2019-02-25T06:37:03.286Z,21.90
2019-02-25T06:38:07.202Z,21.89
2019-02-25T06:39:09.060Z,21.87
2019-02-25T06:40:20.705Z,21.92
2019-02-25T06:41:22.711Z,21.80
2019-02-25T06:42:24.822Z,21.81
2019-02-25T06:43:26.965Z,21.78
2019-02-25T06:44:29.050Z,21.80
2019-02-25T06:45:34.440Z,21.78
2019-02-25T06:46:36.500Z,21.75
2019-02-25T06:47:38.445Z,21.71
2019-02-25T06:48:40.536Z,21.64
2019-02-25T06:49:42.799Z,21.64
2019-02-25T06:50:44.678Z,21.65
2019-02-25T06:51:46.629Z,21.63
2019-02-25T06:52:48.919Z,21.63
2019-02-25T06:53:50.787Z,21.65
2019-02-25T06:54:52.567Z,21.63
2019-02-25T06:55:54.570Z,21.60
2019-02-25T06:56:56.740Z,21.55
2019-02-25T06:57:59.990Z,21.51
2019-02-25T06:59:01.921Z,21.50
2019-02-25T07:00:09.297Z,21.51
2019-02-25T07:01:11.053Z,21.50
2019-02-25T07:02:13.067Z,21.60
2019-02-25T07:03:14.862Z,21.61
2019-02-25T07:04:18.973Z,21.36
2019-02-25T07:05:39.336Z,21.33
2019-02-25T07:06:46.164Z,21.28
2019-02-25T07:07:49.339Z,21.43
2019-02-25T07:08:53.188Z,21.22
2019-02-25T07:09:59.407Z,21.18
2019-02-25T07:11:20.187Z,21.15
2019-02-25T07:12:25.794Z,21.18
2019-02-25T07:13:44.985Z,21.16
2019-02-25T07:14:48.728Z,21.24
2019-02-25T07:16:05.497Z,21.15
2019-02-25T07:17:12.433Z,21.05
2019-02-25T07:18:32.524Z,21.12
2019-02-25T07:19:40.305Z,21.05
2019-02-25T07:21:00.191Z,20.96
2019-02-25T07:22:05.857Z,20.94
2019-02-25T07:23:27.627Z,20.87
2019-02-25T07:24:40.678Z,20.81
2019-02-25T07:25:44.523Z,20.84
2019-02-25T07:26:54.618Z,20.77
2019-02-25T07:27:56.407Z,20.80
2019-02-25T07:29:04.079Z,20.78
2019-02-25T07:30:11.571Z,20.72
2019-02-25T07:31:17.791Z,20.57
2019-02-25T07:32:38.299Z,20.61
2019-02-25T07:33:48.071Z,20.58
2019-02-25T07:34:52.498Z,20.63
2019-02-25T07:36:14.574Z,20.46
2019-02-25T07:37:18.529Z,20.48
2019-02-25T07:38:24.835Z,20.50
2019-02-25T07:39:31.765Z,20.45
2019-02-25T07:40:47.540Z,20.31
2019-02-25T07:42:08.077Z,20.36
2019-02-25T07:43:15.564Z,20.52
2019-02-25T07:44:32.722Z,20.49
2019-02-25T07:45:39.261Z,20.32
2019-02-25T07:46:45.891Z,20.30
2019-02-25T07:47:53.854Z,20.44
2019-02-25T07:49:12.720Z,20.34
2019-02-25T07:50:22.508Z,20.34
2019-02-25T07:51:35.077Z,20.48
2019-02-25T07:52:42.146Z,20.47
2019-02-25T07:53:51.580Z,20.41
2019-02-25T07:54:55.732Z,20.50
2019-02-25T07:56:02.736Z,20.34
2019-02-25T07:57:09.428Z,20.41
2019-02-25T07:58:13.090Z,20.32
2019-02-25T07:59:28.731Z,20.39
2019-02-25T08:00:32.583Z,20.43
2019-02-25T08:01:35.805Z,20.53
2019-02-25T08:02:54.348Z,20.50
2019-02-25T08:04:03.860Z,20.48
2019-02-25T08:05:15.214Z,20.50
2019-02-25T08:06:20.332Z,20.40
2019-02-25T08:07:22.268Z,20.42
2019-02-25T08:08:30.123Z,20.48
2019-02-25T08:09:31.958Z,20.45
2019-02-25T08:10:38.584Z,20.43
2019-02-25T08:11:43.380Z,20.43
2019-02-25T08:12:47.332Z,20.48
2019-02-25T08:13:51.412Z,20.49
2019-02-25T08:15:01.104Z,20.52
2019-02-25T08:16:10.825Z,20.56
2019-02-25T08:17:30.504Z,20.63
2019-02-25T08:18:43.530Z,20.63
2019-02-25T08:19:47.496Z,20.63
2019-02-25T08:21:00.498Z,20.66
2019-02-25T08:22:07.321Z,20.77
2019-02-25T08:23:17.377Z,20.73
2019-02-25T08:24:37.571Z,20.84
2019-02-25T08:25:52.115Z,20.75
2019-02-25T08:26:56.021Z,20.85
2019-02-25T08:28:00.839Z,20.87
2019-02-25T08:29:21.617Z,20.91
2019-02-25T08:30:34.398Z,20.92
2019-02-25T08:31:38.060Z,20.88
2019-02-25T08:32:55.460Z,20.72
2019-02-25T08:34:18.585Z,20.78
2019-02-25T08:35:51.533Z,20.65
2019-02-25T08:37:12.510Z,20.76
2019-02-25T08:38:16.528Z,20.63
2019-02-25T08:39:20.675Z,20.71
2019-02-25T08:40:33.833Z,20.70
2019-02-25T08:41:38.408Z,20.58
2019-02-25T08:42:47.722Z,20.56
2019-02-25T08:44:09.294Z,20.53
2019-02-25T08:45:15.948Z,20.56
2019-02-25T08:46:22.388Z,20.53
2019-02-25T08:47:27.367Z,20.42
2019-02-25T08:48:33.964Z,20.38
2019-02-25T08:49:37.788Z,20.47
2019-02-25T08:50:39.988Z,20.32
2019-02-25T08:51:41.975Z,20.47
2019-02-25T08:52:44.118Z,20.39
2019-02-25T08:53:46.249Z,20.47
2019-02-25T08:54:48.369Z,20.42
2019-02-25T08:55:50.540Z,20.59
2019-02-25T08:56:52.507Z,20.56
2019-02-25T08:57:54.670Z,20.57
2019-02-25T08:58:56.838Z,20.47
2019-02-25T08:59:59.023Z,20.59
2019-02-25T09:01:00.887Z,20.52
2019-02-25T09:02:04.927Z,20.44
2019-02-25T09:03:07.100Z,20.47
2019-02-25T09:04:09.159Z,20.56
2019-02-25T09:05:13.284Z,20.54
2019-02-25T09:06:15.137Z,20.58
2019-02-25T09:07:17.407Z,20.54
2019-02-25T09:08:19.611Z,20.56
2019-02-25T09:09:21.740Z,20.60
2019-02-25T09:10:23.939Z,20.67
2019-02-25T09:11:26.008Z,20.72
2019-02-25T09:12:27.815Z,20.77
2019-02-25T09:13:30.203Z,20.91
2019-02-25T09:14:32.225Z,20.95
2019-02-25T09:15:34.340Z,20.97
2019-02-25T09:16:36.311Z,20.87
2019-02-25T09:17:44.622Z,20.80
2019-02-25T09:18:46.652Z,20.93
2019-02-25T09:19:48.671Z,20.96
2019-02-25T09:20:50.909Z,21.02
2019-02-25T09:21:52.738Z,20.94
2019-02-25T09:22:54.767Z,20.94
2019-02-25T09:23:56.933Z,20.91
2019-02-25T09:24:58.634Z,20.80
2019-02-25T09:26:00.660Z,20.72
2019-02-25T09:27:02.886Z,20.72
2019-02-25T09:28:04.866Z,20.72
2019-02-25T09:29:06.950Z,20.74
2019-02-25T09:30:17.864Z,20.75
2019-02-25T09:31:21.352Z,20.77
2019-02-25T09:32:23.591Z,20.84
2019-02-25T09:33:25.876Z,20.84
2019-02-25T09:34:27.684Z,20.94
2019-02-25T09:35:29.756Z,20.87
2019-02-25T09:36:31.643Z,20.87
2019-02-25T09:37:33.524Z,20.88
2019-02-25T09:38:35.877Z,20.92
2019-02-25T09:39:37.708Z,20.95
2019-02-25T09:40:41.926Z,20.96
2019-02-25T09:41:44.829Z,21.01
2019-02-25T09:42:46.611Z,21.05
2019-02-25T09:43:48.655Z,21.07
2019-02-25T09:44:50.744Z,21.11
2019-02-25T09:45:52.941Z,21.14
2019-02-25T09:46:54.915Z,21.20
2019-02-25T09:47:56.879Z,21.25
2019-02-25T09:48:58.918Z,21.29
2019-02-25T09:50:00.882Z,21.31
2019-02-25T09:51:02.775Z,21.35
2019-02-25T09:52:04.670Z,21.38
2019-02-25T09:53:08.809Z,21.40
2019-02-25T09:54:12.607Z,21.43
2019-02-25T09:55:14.810Z,21.45
2019-02-25T09:56:16.722Z,21.46
2019-02-25T09:57:18.621Z,21.51
2019-02-25T09:58:20.374Z,21.68
2019-02-25T09:59:22.315Z,21.63
2019-02-25T10:00:24.326Z,21.66
2019-02-25T10:01:26.201Z,21.48
2019-02-25T10:02:28.307Z,21.53
2019-02-25T10:03:30.249Z,21.59
2019-02-25T10:04:32.331Z,21.48
2019-02-25T10:05:34.394Z,21.43
2019-02-25T10:06:36.515Z,21.43
2019-02-25T10:07:39.499Z,21.55
2019-02-25T10:08:41.547Z,21.46
2019-02-25T10:09:43.819Z,21.44
2019-02-25T10:10:46.156Z,21.52
2019-02-25T10:11:48.737Z,21.48
2019-02-25T10:12:51.542Z,21.47
2019-02-25T10:13:55.618Z,21.45
2019-02-25T10:14:57.565Z,21.61
2019-02-25T10:15:59.440Z,21.50
2019-02-25T10:17:01.488Z,21.50
2019-02-25T10:18:03.596Z,21.51
2019-02-25T10:19:05.866Z,21.52
2019-02-25T10:20:08.846Z,21.54
2019-02-25T10:21:10.770Z,21.53
2019-02-25T10:22:12.734Z,21.56
2019-02-25T10:23:14.629Z,21.55
2019-02-25T10:24:18.496Z,21.56
2019-02-25T10:25:20.500Z,21.56
2019-02-25T10:26:22.821Z,21.71
2019-02-25T10:27:24.884Z,21.69
2019-02-25T10:28:26.808Z,21.58
2019-02-25T10:29:30.946Z,21.69
2019-02-25T10:30:32.642Z,21.75
2019-02-25T10:31:38.100Z,21.54
2019-02-25T10:32:40.394Z,21.45
2019-02-25T10:33:42.270Z,21.60
2019-02-25T10:34:44.471Z,21.55
2019-02-25T10:35:46.353Z,21.52
2019-02-25T10:36:48.673Z,21.52
2019-02-25T10:37:54.035Z,21.34
2019-02-25T10:38:55.875Z,21.29
2019-02-25T10:39:58.567Z,21.31
2019-02-25T10:41:00.576Z,21.36
2019-02-25T10:42:02.858Z,21.36
2019-02-25T10:43:05.009Z,21.46
2019-02-25T10:44:08.507Z,21.43
2019-02-25T10:45:22.152Z,21.48
2019-02-25T10:46:24.227Z,21.42
2019-02-25T10:47:27.741Z,21.41
2019-02-25T10:48:29.604Z,21.44
2019-02-25T10:49:33.559Z,21.44
2019-02-25T10:50:35.964Z,21.43
2019-02-25T10:51:40.646Z,21.45
2019-02-25T10:52:42.870Z,21.63
2019-02-25T10:53:47.815Z,21.55
2019-02-25T10:54:52.044Z,21.44
2019-02-25T10:56:01.354Z,21.43
2019-02-25T10:57:04.650Z,21.45
2019-02-25T10:58:11.374Z,21.49
2019-02-25T10:59:13.469Z,21.52
2019-02-25T11:00:19.525Z,21.54
2019-02-25T11:01:24.587Z,21.55
2019-02-25T11:02:26.758Z,21.60
2019-02-25T11:03:28.636Z,21.62
2019-02-25T11:04:30.628Z,21.63
2019-02-25T11:05:32.902Z,21.64
2019-02-25T11:06:36.002Z,21.68
2019-02-25T11:07:39.827Z,21.72
2019-02-25T11:08:45.716Z,21.75
2019-02-25T11:09:50.464Z,21.79
2019-02-25T11:10:57.630Z,21.79
2019-02-25T11:12:00.241Z,21.83
2019-02-25T11:13:04.215Z,21.95
2019-02-25T11:14:07.269Z,22.03
2019-02-25T11:15:11.643Z,21.98
2019-02-25T11:16:16.464Z,21.93
2019-02-25T11:17:20.426Z,21.86
2019-02-25T11:18:24.512Z,21.80
2019-02-25T11:19:28.635Z,21.62
2019-02-25T11:20:31.730Z,21.63
2019-02-25T11:21:35.317Z,21.60
2019-02-25T11:22:39.823Z,21.63
2019-02-25T11:23:43.423Z,21.65
2019-02-25T11:24:49.128Z,21.68
2019-02-25T11:25:51.494Z,21.70
2019-02-25T11:26:54.069Z,21.67
2019-02-25T11:27:57.055Z,21.72
2019-02-25T11:29:00.191Z,21.76
2019-02-25T11:30:05.106Z,21.79
2019-02-25T11:31:07.354Z,21.90
2019-02-25T11:32:09.546Z,21.90
2019-02-25T11:33:11.375Z,21.98
2019-02-25T11:34:13.034Z,21.86
2019-02-25T11:35:15.041Z,21.95
2019-02-25T11:36:17.909Z,21.93
2019-02-25T11:37:22.557Z,21.91
2019-02-25T11:38:26.137Z,21.79
2019-02-25T11:39:30.229Z,21.84
2019-02-25T11:40:34.111Z,21.69
2019-02-25T11:41:38.398Z,21.58
2019-02-25T11:42:40.652Z,21.61
2019-02-25T11:43:43.975Z,21.62
2019-02-25T11:44:46.741Z,21.54
2019-02-25T11:45:48.627Z,21.52
2019-02-25T11:46:50.630Z,21.74
2019-02-25T11:47:52.939Z,21.75
2019-02-25T11:48:54.637Z,21.72
2019-02-25T11:49:56.687Z,21.49
2019-02-25T11:50:58.691Z,21.50
2019-02-25T11:52:00.663Z,21.59
2019-02-25T11:53:02.695Z,21.61
2019-02-25T11:54:04.659Z,21.62
2019-02-25T11:55:14.359Z,21.62
2019-02-25T11:56:16.232Z,21.53
2019-02-25T11:57:20.772Z,21.43
2019-02-25T11:58:22.645Z,21.45
2019-02-25T11:59:26.366Z,21.60
2019-02-25T12:00:28.806Z,21.60
2019-02-25T12:01:30.934Z,21.61
2019-02-25T12:02:33.198Z,21.52
2019-02-25T12:03:35.232Z,21.34
2019-02-25T12:04:37.271Z,21.51
2019-02-25T12:05:39.336Z,21.47
2019-02-25T12:06:41.094Z,21.53
2019-02-25T12:07:44.570Z,21.51
2019-02-25T12:08:46.664Z,21.51
2019-02-25T12:09:48.604Z,21.48
2019-02-25T12:10:50.729Z,21.39
2019-02-25T12:11:52.642Z,21.38
2019-02-25T12:12:56.152Z,21.34
2019-02-25T12:13:58.120Z,21.31
2019-02-25T12:15:00.301Z,21.33
2019-02-25T12:16:02.509Z,21.43
2019-02-25T12:17:04.610Z,21.42
2019-02-25T12:18:06.838Z,21.36
2019-02-25T12:19:17.602Z,21.25
2019-02-25T12:20:13.341Z,21.35
2019-02-25T12:21:15.196Z,21.33
2019-02-25T12:22:17.223Z,21.39
2019-02-25T12:23:19.233Z,21.41
2019-02-25T12:24:21.081Z,21.28
2019-02-25T12:25:24.443Z,21.44
2019-02-25T12:26:26.325Z,21.49
2019-02-25T12:27:28.535Z,21.31
2019-02-25T12:28:30.789Z,21.31
2019-02-25T12:29:32.851Z,21.33
2019-02-25T12:30:35.507Z,21.37
2019-02-25T12:31:38.599Z,21.43
2019-02-25T12:32:40.666Z,21.46
2019-02-25T12:33:42.621Z,21.55
2019-02-25T12:34:44.601Z,21.49
2019-02-25T12:35:46.795Z,21.52
2019-02-25T12:36:48.579Z,21.54
2019-02-25T12:37:50.618Z,21.57
2019-02-25T12:38:52.544Z,21.64
2019-02-25T12:39:54.500Z,21.68
2019-02-25T12:40:56.862Z,21.73
2019-02-25T12:41:59.058Z,21.78
2019-02-25T12:43:01.036Z,21.82
2019-02-25T12:44:03.418Z,21.87
2019-02-25T12:45:09.176Z,21.89
2019-02-25T12:46:11.062Z,21.94
2019-02-25T12:47:13.316Z,21.94
2019-02-25T12:48:15.385Z,21.99
2019-02-25T12:49:17.424Z,21.97
2019-02-25T12:50:19.511Z,21.97
2019-02-25T12:51:21.606Z,21.97
2019-02-25T12:52:23.860Z,21.97
2019-02-25T12:53:25.871Z,21.97
2019-02-25T12:54:27.606Z,21.97
2019-02-25T12:55:29.673Z,21.96
2019-02-25T12:56:31.574Z,22.05
2019-02-25T12:57:33.323Z,22.01
2019-02-25T12:58:35.187Z,21.98
2019-02-25T12:59:37.199Z,21.96
2019-02-25T13:00:40.189Z,21.93
2019-02-25T13:01:42.698Z,21.94
2019-02-25T13:02:44.767Z,21.97
2019-02-25T13:03:46.706Z,22.00
2019-02-25T13:04:49.727Z,22.04
2019-02-25T13:05:51.580Z,22.05
2019-02-25T13:06:53.566Z,22.09
2019-02-25T13:07:55.467Z,22.12
2019-02-25T13:08:57.539Z,22.10
2019-02-25T13:09:59.235Z,22.13
2019-02-25T13:11:01.351Z,22.13
2019-02-25T13:12:03.633Z,22.12
2019-02-25T13:13:05.375Z,22.12
2019-02-25T13:14:07.538Z,22.16
2019-02-25T13:15:15.945Z,22.17
2019-02-25T13:16:18.235Z,22.18
2019-02-25T13:17:21.306Z,22.20
2019-02-25T13:18:23.555Z,22.23
2019-02-25T13:19:25.701Z,22.28
2019-02-25T13:20:27.847Z,22.28
2019-02-25T13:21:33.080Z,22.31
2019-02-25T13:22:36.054Z,22.27
2019-02-25T13:23:37.918Z,22.25
2019-02-25T13:24:40.001Z,22.23
2019-02-25T13:25:42.137Z,22.21
2019-02-25T13:26:44.122Z,22.23
2019-02-25T13:27:46.142Z,22.25
2019-02-25T13:28:48.234Z,22.45
2019-02-25T13:29:50.136Z,22.39
2019-02-25T13:30:52.120Z,22.26
2019-02-25T13:31:55.320Z,22.32
2019-02-25T13:32:57.369Z,22.24
2019-02-25T13:33:59.392Z,22.25
2019-02-25T13:35:01.725Z,22.35
2019-02-25T13:36:09.218Z,22.22
2019-02-25T13:37:11.012Z,22.22
2019-02-25T13:38:12.964Z,22.20